createdAt,value
2022-08-20T00:01:43.898Z,13.10
2022-08-20T00:04:46.261Z,12.50
2022-08-20T00:07:48.026Z,12.30
2022-08-20T00:10:54.975Z,12.40
2022-08-20T00:14:00.946Z,12.20
2022-08-20T00:17:04.777Z,12.20
2022-08-20T00:20:10.568Z,12.80
2022-08-20T00:23:12.765Z,12.90
2022-08-20T00:26:14.937Z,12.40
2022-08-20T00:29:16.862Z,12.50
2022-08-20T00:32:21.994Z,12.60
2022-08-20T00:35:27.809Z,13.00
2022-08-20T00:38:29.677Z,13.50
2022-08-20T00:41:31.962Z,13.00
2022-08-20T00:44:33.886Z,14.00
2022-08-20T00:47:36.307Z,14.10
2022-08-20T00:50:38.234Z,14.20
2022-08-20T00:53:40.746Z,15.90
2022-08-20T00:56:44.978Z,14.10
2022-08-20T00:59:49.540Z,14.40
2022-08-20T01:02:51.498Z,14.70
2022-08-20T01:05:53.266Z,14.00
2022-08-20T01:08:54.997Z,13.80
2022-08-20T01:11:57.658Z,14.20
2022-08-20T01:15:02.274Z,14.30
2022-08-20T01:18:04.542Z,15.10
2022-08-20T01:21:06.997Z,15.40
2022-08-20T01:24:26.238Z,15.40
2022-08-20T01:27:28.349Z,14.20
2022-08-20T01:30:33.122Z,14.00
2022-08-20T01:33:35.237Z,13.20
2022-08-20T01:36:46.284Z,13.50
2022-08-20T01:39:48.471Z,14.00
2022-08-20T01:42:58.637Z,14.00
2022-08-20T01:49:23.315Z,14.00
2022-08-20T01:52:36.195Z,14.50
2022-08-20T01:55:38.665Z,15.00
2022-08-20T01:58:44.133Z,14.60
2022-08-20T02:01:47.144Z,15.20
2022-08-20T02:04:49.206Z,15.70
2022-08-20T02:07:51.151Z,15.20
2022-08-20T02:10:53.157Z,15.00
2022-08-20T02:13:55.177Z,15.80
2022-08-20T02:17:00.617Z,15.50
2022-08-20T02:20:08.329Z,15.70
2022-08-20T02:23:12.183Z,15.00
2022-08-20T02:26:14.036Z,15.20
2022-08-20T02:29:16.184Z,15.60
2022-08-20T02:32:24.374Z,16.80
2022-08-20T02:35:36.419Z,16.20
2022-08-20T02:38:39.736Z,16.20
2022-08-20T02:41:41.740Z,15.50
2022-08-20T02:44:43.619Z,17.90
2022-08-20T02:47:46.689Z,18.00
2022-08-20T02:50:55.731Z,19.60
2022-08-20T02:53:57.769Z,19.00
2022-08-20T02:56:59.728Z,20.90
2022-08-20T03:00:02.247Z,21.10
2022-08-20T03:03:04.311Z,20.40
2022-08-20T03:06:07.137Z,19.90
2022-08-20T03:09:09.196Z,23.40
2022-08-20T03:12:11.104Z,23.40
2022-08-20T03:15:17.602Z,23.20
2022-08-20T03:18:21.320Z,22.90
2022-08-20T03:21:23.223Z,21.60
2022-08-20T03:24:24.978Z,20.30
2022-08-20T03:27:27.722Z,19.40
2022-08-20T03:30:38.885Z,19.40
2022-08-20T03:33:52.980Z,19.70
2022-08-20T03:36:55.918Z,19.80
2022-08-20T03:39:59.081Z,20.20
2022-08-20T03:43:01.298Z,18.80
2022-08-20T03:46:03.785Z,19.10
2022-08-20T03:49:06.352Z,19.30
2022-08-20T03:52:08.004Z,18.80
2022-08-20T03:55:11.518Z,18.70
2022-08-20T03:58:14.636Z,19.70
2022-08-20T04:01:45.394Z,19.20
2022-08-20T04:04:40.531Z,18.00
2022-08-20T04:07:42.462Z,18.50
2022-08-20T04:10:46.654Z,18.70
2022-08-20T04:13:49.197Z,19.10
2022-08-20T04:16:51.454Z,18.90
2022-08-20T04:19:53.182Z,19.80
2022-08-20T04:22:58.470Z,19.40
2022-08-20T04:26:01.593Z,19.90
2022-08-20T04:29:04.430Z,18.80
2022-08-20T04:32:07.349Z,18.10
2022-08-20T04:35:13.457Z,17.40
2022-08-20T04:38:18.481Z,17.90
2022-08-20T04:41:23.669Z,17.20
2022-08-20T04:44:26.367Z,17.30
2022-08-20T04:47:34.518Z,17.80
2022-08-20T04:50:38.982Z,17.60
2022-08-20T04:53:41.173Z,17.40
2022-08-20T04:56:42.970Z,17.40
2022-08-20T04:59:45.332Z,16.70
2022-08-20T05:02:47.031Z,18.00
2022-08-20T05:05:50.409Z,17.10
2022-08-20T05:08:53.888Z,17.50
2022-08-20T05:11:55.727Z,16.60
2022-08-20T05:14:57.510Z,16.20
2022-08-20T05:18:02.658Z,15.50
2022-08-20T05:21:06.215Z,16.00
2022-08-20T05:24:10.224Z,19.60
2022-08-20T05:27:18.005Z,20.10
2022-08-20T05:30:33.375Z,16.70
2022-08-20T05:33:38.630Z,14.80
2022-08-20T05:36:47.000Z,13.90
2022-08-20T05:42:54.445Z,13.60
2022-08-20T05:45:58.550Z,14.50
2022-08-20T05:49:01.894Z,14.70
2022-08-20T05:52:05.436Z,15.40
2022-08-20T05:55:10.174Z,14.70
2022-08-20T05:58:24.935Z,13.60
2022-08-20T06:01:26.825Z,12.90
2022-08-20T06:04:29.765Z,12.90
2022-08-20T06:07:31.552Z,12.00
2022-08-20T06:10:33.559Z,11.40
2022-08-20T06:13:35.314Z,9.90
2022-08-20T06:16:37.640Z,9.40
2022-08-20T06:19:39.965Z,9.30
2022-08-20T06:22:46.122Z,9.00
2022-08-20T06:25:50.199Z,9.80
2022-08-20T06:28:54.204Z,9.20
2022-08-20T06:31:56.975Z,10.20
2022-08-20T06:34:59.111Z,10.10
2022-08-20T06:38:05.967Z,10.00
2022-08-20T06:41:09.318Z,10.10
2022-08-20T06:44:11.207Z,10.60
2022-08-20T06:47:14.620Z,10.30
2022-08-20T06:50:27.080Z,9.90
2022-08-20T06:53:29.174Z,10.30
2022-08-20T06:56:33.423Z,10.60
2022-08-20T06:59:36.640Z,10.60
2022-08-20T07:02:38.585Z,9.70
2022-08-20T07:05:43.122Z,10.30
2022-08-20T07:08:44.942Z,10.30
2022-08-20T07:11:47.518Z,9.40
2022-08-20T07:14:49.294Z,9.50
2022-08-20T07:17:57.521Z,9.50
2022-08-20T07:21:02.140Z,8.80
2022-08-20T07:24:04.613Z,8.60
2022-08-20T07:27:06.339Z,9.00
2022-08-20T07:30:29.333Z,8.70
2022-08-20T07:33:32.358Z,10.10
2022-08-20T07:36:34.486Z,8.20
2022-08-20T07:39:36.322Z,8.40
2022-08-20T07:42:39.412Z,8.80
2022-08-20T07:45:41.181Z,8.60
2022-08-20T07:48:51.454Z,8.20
2022-08-20T07:51:53.223Z,8.60
2022-08-20T07:54:55.000Z,8.70
2022-08-20T07:57:58.932Z,7.80
2022-08-20T08:01:01.072Z,7.30
2022-08-20T08:04:03.752Z,7.30
2022-08-20T08:07:06.163Z,7.50
2022-08-20T08:10:09.989Z,7.50
2022-08-20T08:13:12.942Z,7.20
2022-08-20T08:16:15.551Z,7.50
2022-08-20T08:19:18.276Z,7.50
2022-08-20T08:22:20.514Z,7.60
2022-08-20T08:25:22.323Z,7.00
2022-08-20T08:28:25.402Z,6.70
2022-08-20T08:31:27.206Z,7.40
2022-08-20T08:34:30.177Z,6.80
2022-08-20T08:37:32.265Z,7.50
2022-08-20T08:40:34.194Z,7.20
2022-08-20T08:43:35.968Z,7.10
2022-08-20T08:46:43.375Z,7.10
2022-08-20T08:49:47.047Z,7.10
2022-08-20T08:52:51.410Z,7.10
2022-08-20T08:55:53.431Z,6.60
2022-08-20T08:59:04.624Z,6.70
2022-08-20T09:02:06.576Z,7.70
2022-08-20T09:05:16.857Z,7.10
2022-08-20T09:08:24.472Z,7.10
2022-08-20T09:11:27.154Z,7.20
2022-08-20T09:14:29.079Z,6.70
2022-08-20T09:17:31.119Z,7.20
2022-08-20T09:20:33.230Z,12.80
2022-08-20T09:23:35.991Z,6.90
2022-08-20T09:26:39.242Z,7.10
2022-08-20T09:29:41.182Z,6.60
2022-08-20T09:32:44.128Z,6.40
2022-08-20T09:35:46.788Z,6.20
2022-08-20T09:38:48.549Z,6.30
2022-08-20T09:41:50.237Z,6.40
2022-08-20T09:44:52.358Z,5.80
2022-08-20T09:47:56.229Z,6.20
2022-08-20T09:50:59.482Z,6.60
2022-08-20T09:54:02.574Z,6.10
2022-08-20T09:57:06.838Z,6.40
2022-08-20T10:00:12.193Z,6.30
2022-08-20T10:03:14.328Z,6.60
2022-08-20T10:06:19.725Z,6.20
2022-08-20T10:09:21.769Z,5.70
2022-08-20T10:12:24.126Z,5.90
2022-08-20T10:15:25.904Z,6.30
2022-08-20T10:18:27.639Z,6.10
2022-08-20T10:21:32.540Z,6.50
2022-08-20T10:24:36.061Z,6.60
2022-08-20T10:27:38.594Z,6.00
2022-08-20T10:30:40.290Z,6.60
2022-08-20T10:33:42.586Z,6.30
2022-08-20T10:36:44.789Z,6.30
2022-08-20T10:39:48.194Z,6.40
2022-08-20T10:42:50.040Z,6.80
2022-08-20T10:45:52.292Z,6.20
2022-08-20T10:48:54.050Z,6.30
2022-08-20T10:51:56.547Z,6.50
2022-08-20T10:54:59.337Z,6.40
2022-08-20T10:58:01.110Z,6.20
2022-08-20T11:01:02.857Z,5.80
2022-08-20T11:04:05.177Z,5.70
2022-08-20T11:07:15.530Z,5.40
2022-08-20T11:10:17.597Z,6.10
2022-08-20T11:13:19.306Z,5.90
2022-08-20T11:16:21.049Z,6.00
2022-08-20T11:19:25.125Z,6.10
2022-08-20T11:22:27.735Z,6.10
2022-08-20T11:25:29.657Z,5.90
2022-08-20T11:28:33.333Z,6.00
2022-08-20T11:31:35.285Z,6.10
2022-08-20T11:34:37.161Z,5.90
2022-08-20T11:37:38.915Z,6.00
2022-08-20T11:40:41.051Z,5.80
2022-08-20T11:43:55.024Z,5.60
2022-08-20T11:47:06.410Z,5.80
2022-08-20T11:50:17.142Z,5.50
2022-08-20T11:53:21.589Z,5.40
2022-08-20T11:56:24.344Z,5.60
2022-08-20T11:59:29.048Z,5.40
2022-08-20T12:02:31.317Z,5.60
2022-08-20T12:05:33.232Z,6.30
2022-08-20T12:08:35.254Z,5.80
2022-08-20T12:11:37.058Z,5.70
2022-08-20T12:14:38.989Z,5.50
2022-08-20T12:17:41.130Z,6.00
2022-08-20T12:20:42.877Z,6.60
2022-08-20T12:23:45.580Z,6.60
2022-08-20T12:26:47.318Z,6.70
2022-08-20T12:29:53.231Z,6.30
2022-08-20T12:32:55.018Z,6.80
2022-08-20T12:35:57.579Z,6.80
2022-08-20T12:38:59.488Z,6.90
2022-08-20T12:42:04.768Z,6.50
2022-08-20T12:45:07.388Z,6.70
2022-08-20T12:48:12.101Z,7.40
2022-08-20T12:51:14.141Z,7.50
2022-08-20T12:54:16.312Z,7.30
2022-08-20T12:57:28.928Z,6.60
2022-08-20T13:00:33.579Z,6.80
2022-08-20T13:03:40.247Z,7.50
2022-08-20T13:06:47.014Z,8.10
2022-08-20T13:09:48.769Z,7.20
2022-08-20T13:12:51.103Z,6.90
2022-08-20T13:15:52.800Z,7.60
2022-08-20T13:18:54.728Z,7.50
2022-08-20T13:21:57.226Z,8.10
2022-08-20T13:24:59.151Z,8.60
2022-08-20T13:28:03.963Z,7.90
2022-08-20T13:31:06.129Z,7.80
2022-08-20T13:34:08.093Z,7.80
2022-08-20T13:37:25.087Z,7.80
2022-08-20T13:40:28.290Z,8.00
2022-08-20T13:43:30.105Z,7.70
2022-08-20T13:46:31.862Z,7.90
2022-08-20T13:49:33.951Z,9.20
2022-08-20T13:52:37.073Z,7.20
2022-08-20T13:55:39.155Z,10.20
2022-08-20T13:58:41.056Z,10.70
2022-08-20T14:01:43.098Z,8.40
2022-08-20T14:04:45.831Z,8.00
2022-08-20T14:07:48.875Z,8.00
2022-08-20T14:10:51.488Z,9.00
2022-08-20T14:13:53.517Z,8.00
2022-08-20T14:16:55.366Z,7.90
2022-08-20T14:20:02.895Z,4.80
2022-08-20T14:23:04.742Z,5.10
2022-08-20T14:26:06.665Z,5.20
2022-08-20T14:29:08.424Z,4.10
2022-08-20T14:32:10.891Z,4.10
2022-08-20T14:35:13.120Z,4.70
2022-08-20T14:38:14.839Z,4.40
2022-08-20T14:41:16.622Z,3.90
2022-08-20T14:44:18.622Z,3.60
2022-08-20T14:47:26.438Z,4.50
2022-08-20T14:50:31.659Z,3.70
2022-08-20T14:53:38.592Z,3.80
2022-08-20T14:56:42.132Z,4.60
2022-08-20T14:59:44.140Z,4.30
2022-08-20T15:02:47.079Z,4.40
2022-08-20T15:05:48.873Z,4.90
2022-08-20T15:08:52.210Z,5.00
2022-08-20T15:11:53.859Z,4.90
2022-08-20T15:14:55.723Z,5.20
2022-08-20T15:18:01.576Z,5.20
2022-08-20T15:21:03.440Z,5.60
2022-08-20T15:24:18.882Z,5.50
2022-08-20T15:27:23.805Z,5.80
2022-08-20T15:30:26.339Z,6.10
2022-08-20T15:33:28.212Z,6.50
2022-08-20T15:36:30.173Z,6.00
2022-08-20T15:39:32.274Z,6.90
2022-08-20T15:42:34.115Z,6.70
2022-08-20T15:45:36.525Z,6.60
2022-08-20T15:48:42.588Z,7.20
2022-08-20T15:51:49.412Z,7.10
2022-08-20T15:54:55.009Z,7.40
2022-08-20T15:58:10.938Z,7.10
2022-08-20T16:01:25.210Z,7.30
2022-08-20T16:05:01.860Z,6.60
2022-08-20T16:08:34.608Z,7.00
2022-08-20T16:11:47.610Z,6.80
2022-08-20T16:14:51.453Z,7.20
2022-08-20T16:18:07.783Z,6.80
2022-08-20T16:21:12.408Z,7.10
2022-08-20T16:24:14.310Z,7.00
2022-08-20T16:27:39.965Z,6.90
2022-08-20T16:30:47.695Z,6.50
2022-08-20T16:34:32.213Z,7.20
2022-08-20T16:37:44.904Z,7.30
2022-08-20T16:40:50.245Z,6.70
2022-08-20T16:43:58.897Z,6.70
2022-08-20T16:47:22.648Z,7.00
2022-08-20T16:50:29.448Z,6.90
2022-08-20T16:53:31.861Z,7.20
2022-08-20T16:56:34.459Z,7.40
2022-08-20T16:59:58.103Z,7.60
2022-08-20T17:03:07.058Z,7.40
2022-08-20T17:06:20.444Z,7.90
2022-08-20T17:09:43.802Z,7.80
2022-08-20T17:12:45.706Z,8.00
2022-08-20T17:16:17.282Z,8.40
2022-08-20T17:22:23.676Z,8.90
2022-08-20T17:25:37.553Z,8.80
2022-08-20T17:28:49.462Z,8.60
2022-08-20T17:31:54.390Z,8.80
2022-08-20T17:34:59.031Z,9.20
2022-08-20T17:38:02.698Z,8.70
2022-08-20T17:41:17.227Z,9.10
2022-08-20T17:44:33.517Z,9.40
2022-08-20T17:47:37.900Z,9.00
2022-08-20T17:50:41.330Z,9.90
2022-08-20T17:53:44.194Z,10.40
2022-08-20T17:56:45.998Z,9.80
2022-08-20T18:00:01.894Z,10.50
2022-08-20T18:03:23.683Z,10.60
2022-08-20T18:06:30.677Z,11.50
2022-08-20T18:09:56.491Z,10.60
2022-08-20T18:13:15.437Z,10.70
2022-08-20T18:16:26.554Z,10.80
2022-08-20T18:19:54.735Z,10.90
2022-08-20T18:23:07.726Z,12.70
2022-08-20T18:26:27.629Z,12.00
2022-08-20T18:29:33.304Z,11.80
2022-08-20T18:32:37.312Z,12.80
2022-08-20T18:35:45.993Z,13.20
2022-08-20T18:39:02.667Z,12.00
2022-08-20T18:42:09.187Z,12.00
2022-08-20T18:45:12.658Z,11.80
2022-08-20T18:48:21.995Z,11.90
2022-08-20T18:51:49.701Z,11.60
2022-08-20T18:54:59.149Z,14.00
2022-08-20T18:58:04.131Z,14.20
2022-08-20T19:01:12.202Z,13.70
2022-08-20T19:04:18.772Z,14.20
2022-08-20T19:07:21.202Z,13.80
2022-08-20T19:10:54.046Z,14.10
2022-08-20T19:14:33.698Z,12.70
2022-08-20T19:18:01.953Z,13.70
2022-08-20T19:21:04.534Z,13.00
2022-08-20T19:24:07.724Z,13.20
2022-08-20T19:27:11.036Z,13.90
2022-08-20T19:30:12.883Z,13.40
2022-08-20T19:33:14.874Z,12.40
2022-08-20T19:36:27.608Z,13.80
2022-08-20T19:39:31.449Z,13.20
2022-08-20T19:42:36.395Z,13.20
2022-08-20T19:45:46.598Z,14.50
2022-08-20T19:49:22.302Z,17.10
2022-08-20T19:52:30.907Z,18.60
2022-08-20T19:55:36.488Z,16.50
2022-08-20T19:58:38.243Z,16.40
2022-08-20T20:01:40.534Z,15.10
2022-08-20T20:04:55.241Z,16.30
2022-08-20T20:07:58.765Z,17.20
2022-08-20T20:11:01.102Z,16.80
2022-08-20T20:14:05.979Z,15.80
2022-08-20T20:17:09.741Z,16.40
2022-08-20T20:20:27.473Z,15.70
2022-08-20T20:23:41.630Z,15.30
2022-08-20T20:26:49.623Z,16.10
2022-08-20T20:29:59.214Z,15.30
2022-08-20T20:33:14.543Z,16.00
2022-08-20T20:36:18.315Z,14.90
2022-08-20T20:39:37.094Z,14.40
2022-08-20T20:42:38.959Z,15.20
2022-08-20T20:45:44.865Z,16.30
2022-08-20T20:48:53.123Z,15.40
2022-08-20T20:52:05.094Z,14.20
2022-08-20T20:55:17.681Z,13.90
2022-08-20T20:58:19.484Z,13.80
2022-08-20T21:01:46.131Z,13.70
2022-08-20T21:04:44.834Z,13.20
2022-08-20T21:07:50.683Z,12.30
2022-08-20T21:10:52.956Z,12.90
2022-08-20T21:13:54.663Z,12.60
2022-08-20T21:16:59.226Z,12.40
2022-08-20T21:20:02.022Z,12.80
2022-08-20T21:23:05.304Z,12.40
2022-08-20T21:26:07.376Z,13.30
2022-08-20T21:29:13.436Z,12.80
2022-08-20T21:32:17.544Z,12.90
2022-08-20T21:35:19.486Z,13.70
2022-08-20T21:38:21.247Z,14.50
2022-08-20T21:41:29.599Z,14.40
2022-08-20T21:44:33.554Z,15.10
2022-08-20T21:47:36.374Z,15.60
2022-08-20T21:50:38.092Z,16.00
2022-08-20T21:53:40.144Z,17.10
2022-08-20T21:56:42.762Z,18.10
2022-08-20T21:59:44.605Z,19.30
2022-08-20T22:02:46.376Z,19.00
2022-08-20T22:05:48.767Z,20.00
2022-08-20T22:08:50.709Z,21.00
2022-08-20T22:11:55.135Z,21.30
2022-08-20T22:14:58.191Z,22.50
2022-08-20T22:17:59.984Z,22.50
2022-08-20T22:21:03.420Z,23.80
2022-08-20T22:24:07.833Z,25.30
2022-08-20T22:27:09.753Z,24.90
2022-08-20T22:30:12.169Z,26.30
2022-08-20T22:33:18.511Z,26.80
2022-08-20T22:36:20.282Z,27.30
2022-08-20T22:39:22.759Z,28.30
2022-08-20T22:42:24.868Z,28.50
2022-08-20T22:45:27.123Z,28.40
2022-08-20T22:48:29.922Z,27.40
2022-08-20T22:51:34.669Z,28.60
2022-08-20T22:54:38.357Z,28.20
2022-08-20T22:57:47.032Z,28.80
2022-08-20T23:00:50.088Z,29.80
2022-08-20T23:03:55.598Z,33.70
2022-08-20T23:06:58.190Z,32.10
2022-08-20T23:10:00.023Z,33.60
2022-08-20T23:13:01.907Z,33.90
2022-08-20T23:16:04.996Z,31.80
2022-08-20T23:19:07.008Z,31.50
2022-08-20T23:22:08.725Z,29.10
2022-08-20T23:25:11.984Z,27.90
2022-08-20T23:28:14.081Z,26.40
2022-08-20T23:31:15.933Z,26.70
2022-08-20T23:34:17.738Z,27.20
2022-08-20T23:37:19.959Z,25.90
2022-08-20T23:40:28.268Z,25.70
2022-08-20T23:43:30.968Z,24.90
2022-08-20T23:46:34.623Z,24.60
2022-08-20T23:49:36.398Z,23.90
2022-08-20T23:52:38.189Z,26.10
2022-08-20T23:55:40.134Z,25.50
2022-08-20T23:58:42.179Z,26.40
